Time;durP1;ratioP1;P1;durP2;ratioP2;P2;SDS_P1;SDS_P2;PMS_P1;PMS_P2;Temp;Humidity;BMP_temperature;BMP_pressure;BME280_temperature;BME280_humidity;BME280_pressure;Samples;Min_cycle;Max_cycle;Signal;HPM_P1;HPM_P2
2024/03/02 00:00:57;;;;;;;48.45;22.08;;;;;;;;;;2075943;28;20112;-63
2024/03/02 00:02:16;;;;;;;42.67;20.42;;;;;;;;;;2069784;28;20034;-62
2024/03/02 00:03:36;;;;;;;46.03;20.98;;;;;;;;;;2068664;28;20491;-63
2024/03/02 00:04:55;;;;;;;44.15;20.38;;;;;;;;;;2071400;28;20109;-63
2024/03/02 00:06:14;;;;;;;42.33;20.33;;;;;;;;;;2071144;28;20054;-63
2024/03/02 00:07:34;;;;;;;43.90;20.27;;;;;;;;;;2070062;28;20030;-62
2024/03/02 00:08:57;;;;;;;50.05;21.02;;;;;;;;;;2071574;28;20034;-62
2024/03/02 00:10:19;;;;;;;43.08;20.88;;;;;;;;;;2071142;28;20515;-63
2024/03/02 00:11:38;;;;;;;48.03;21.70;;;;;;;;;;2069340;28;20066;-63
2024/03/02 00:12:58;;;;;;;44.38;22.10;;;;;;;;;;2070416;28;20070;-62
2024/03/02 00:14:17;;;;;;;40.10;21.20;;;;;;;;;;2071918;28;20038;-63
2024/03/02 00:15:42;;;;;;;40.90;21.25;;;;;;;;;;2068999;28;20030;-63
2024/03/02 00:17:01;;;;;;;48.47;21.38;;;;;;;;;;2069796;28;20117;-62
2024/03/02 00:18:24;;;;;;;42.53;21.15;;;;;;;;;;2070884;28;20105;-63
2024/03/02 00:19:43;;;;;;;48.45;21.08;;;;;;;;;;2069361;28;20483;-63
2024/03/02 00:21:03;;;;;;;43.35;21.33;;;;;;;;;;2070172;28;20047;-63
2024/03/02 00:22:22;;;;;;;42.75;21.13;;;;;;;;;;2070610;28;20026;-63
2024/03/02 00:23:41;;;;;;;47.38;21.67;;;;;;;;;;2069190;28;20061;-63
2024/03/02 00:25:00;;;;;;;41.95;20.92;;;;;;;;;;2069525;28;20030;-62
2024/03/02 00:26:19;;;;;;;48.85;21.05;;;;;;;;;;2071294;28;20108;-63
2024/03/02 00:27:38;;;;;;;43.80;21.13;;;;;;;;;;2070703;28;20030;-63
2024/03/02 00:28:58;;;;;;;40.47;21.50;;;;;;;;;;2069716;28;20026;-61
2024/03/02 00:30:44;;;;;;;48.40;21.90;;;;;;;;;;2069669;28;20030;-62
2024/03/02 00:32:03;;;;;;;46.88;20.90;;;;;;;;;;2068108;28;20042;-63
2024/03/02 00:33:23;;;;;;;50.00;21.02;;;;;;;;;;2070046;28;20038;-63
2024/03/02 00:34:42;;;;;;;44.17;20.80;;;;;;;;;;2070358;28;20052;-62
2024/03/02 00:36:04;;;;;;;44.42;20.77;;;;;;;;;;2074470;28;20029;-63
2024/03/02 00:37:23;;;;;;;46.65;21.58;;;;;;;;;;2070066;28;20046;-63
2024/03/02 00:38:47;;;;;;;47.80;21.08;;;;;;;;;;2070569;28;20022;-62
2024/03/02 00:40:06;;;;;;;45.42;20.05;;;;;;;;;;2075821;28;20526;-63
2024/03/02 00:41:27;;;;;;;43.30;20.13;;;;;;;;;;2072021;28;20453;-62
2024/03/02 00:42:46;;;;;;;47.45;21.88;;;;;;;;;;2068345;28;20510;-62
2024/03/02 00:44:15;;;;;;;48.03;21.35;;;;;;;;;;2068879;28;20530;-64
2024/03/02 00:45:34;;;;;;;43.90;20.50;;;;;;;;;;2069207;28;20384;-63
2024/03/02 00:46:53;;;;;;;47.47;21.75;;;;;;;;;;2068892;28;20038;-63
2024/03/02 00:48:14;;;;;;;43.10;20.63;;;;;;;;;;2069832;28;20036;-62
2024/03/02 00:49:33;;;;;;;41.80;20.05;;;;;;;;;;2069915;28;20436;-63
2024/03/02 00:50:52;;;;;;;38.20;19.40;;;;;;;;;;2069070;28;20037;-61
2024/03/02 00:52:12;;;;;;;42.05;20.48;;;;;;;;;;2070055;28;20026;-63
2024/03/02 00:53:32;;;;;;;43.22;19.60;;;;;;;;;;2069616;28;20069;-63
2024/03/02 00:54:52;;;;;;;43.83;20.17;;;;;;;;;;2070165;28;20046;-62
2024/03/02 00:56:11;;;;;;;46.13;20.08;;;;;;;;;;2070179;28;20112;-63
2024/03/02 00:57:34;;;;;;;40.97;18.95;;;;;;;;;;2070096;28;20038;-62
2024/03/02 00:58:53;;;;;;;50.95;21.15;;;;;;;;;;2069462;28;20457;-63
2024/03/02 01:00:15;;;;;;;36.67;19.63;;;;;;;;;;2070034;28;20035;-62
2024/03/02 01:01:34;;;;;;;40.25;19.75;;;;;;;;;;2070355;28;20655;-63
2024/03/02 01:02:52;;;;;;;45.50;20.38;;;;;;;;;;2071180;28;20390;-63
2024/03/02 01:04:13;;;;;;;42.50;19.92;;;;;;;;;;2070457;28;20030;-62
2024/03/02 01:05:32;;;;;;;42.90;20.27;;;;;;;;;;2070416;28;20475;-62
2024/03/02 01:06:51;;;;;;;42.88;19.98;;;;;;;;;;2068901;28;20037;-63
2024/03/02 01:08:11;;;;;;;44.75;20.30;;;;;;;;;;2068640;28;20062;-63
2024/03/02 01:09:29;;;;;;;46.03;20.52;;;;;;;;;;2070655;28;20033;-63
2024/03/02 01:10:48;;;;;;;44.47;20.40;;;;;;;;;;2070283;28;20484;-63
2024/03/02 01:12:07;;;;;;;42.03;19.55;;;;;;;;;;2070448;28;20038;-62
2024/03/02 01:13:26;;;;;;;39.85;19.45;;;;;;;;;;2068729;28;20029;-62
2024/03/02 01:14:45;;;;;;;38.03;20.77;;;;;;;;;;2069608;28;20042;-65
2024/03/02 01:16:04;;;;;;;41.05;19.77;;;;;;;;;;2069949;28;20039;-63
2024/03/02 01:17:23;;;;;;;40.45;18.95;;;;;;;;;;2068059;28;20069;-63
2024/03/02 01:18:42;;;;;;;43.22;21.20;;;;;;;;;;2069097;28;20035;-63
2024/03/02 01:20:01;;;;;;;39.53;19.90;;;;;;;;;;2070304;28;20487;-63
2024/03/02 01:21:20;;;;;;;37.42;18.45;;;;;;;;;;2070459;28;20037;-62
2024/03/02 01:22:39;;;;;;;50.83;21.23;;;;;;;;;;2067978;28;20035;-66
2024/03/02 01:23:58;;;;;;;47.15;20.52;;;;;;;;;;2068579;28;20018;-62
2024/03/02 01:25:17;;;;;;;41.72;19.80;;;;;;;;;;2068110;28;20030;-63
2024/03/02 01:26:36;;;;;;;44.88;20.23;;;;;;;;;;2069057;28;20022;-62
2024/03/02 01:27:55;;;;;;;49.22;20.52;;;;;;;;;;2069643;28;20498;-63
2024/03/02 01:29:14;;;;;;;38.22;19.65;;;;;;;;;;2067722;28;20042;-62
2024/03/02 01:30:33;;;;;;;46.83;20.27;;;;;;;;;;2067512;28;20398;-63
2024/03/02 01:31:53;;;;;;;47.20;20.83;;;;;;;;;;2069330;28;20121;-63
2024/03/02 01:33:12;;;;;;;52.10;21.33;;;;;;;;;;2070409;28;20034;-62
2024/03/02 01:34:31;;;;;;;37.03;19.20;;;;;;;;;;2069701;28;20029;-62
2024/03/02 01:35:50;;;;;;;43.05;20.90;;;;;;;;;;2069088;28;20033;-62
2024/03/02 01:37:10;;;;;;;45.45;20.85;;;;;;;;;;2070149;28;20026;-63
2024/03/02 01:38:29;;;;;;;45.42;20.63;;;;;;;;;;2069472;28;20455;-63
2024/03/02 01:39:47;;;;;;;47.67;21.35;;;;;;;;;;2071024;28;20046;-62
2024/03/02 01:41:07;;;;;;;49.80;21.30;;;;;;;;;;2067480;28;20105;-63
2024/03/02 01:42:26;;;;;;;51.60;22.45;;;;;;;;;;2068338;28;20490;-62
2024/03/02 01:43:45;;;;;;;47.70;21.05;;;;;;;;;;2069488;28;20034;-63
2024/03/02 01:45:08;;;;;;;47.63;21.73;;;;;;;;;;2071217;28;20534;-63
2024/03/02 01:46:27;;;;;;;55.67;21.63;;;;;;;;;;2069891;28;20026;-63
2024/03/02 01:47:46;;;;;;;47.85;21.58;;;;;;;;;;2068064;28;20064;-62
2024/03/02 01:49:06;;;;;;;47.65;21.52;;;;;;;;;;2068975;28;20026;-63
2024/03/02 01:50:29;;;;;;;46.83;21.42;;;;;;;;;;2069867;28;20030;-62
2024/03/02 01:51:47;;;;;;;50.97;20.13;;;;;;;;;;2070513;28;20054;-62
2024/03/02 01:53:08;;;;;;;44.63;21.90;;;;;;;;;;2069311;28;20498;-63
2024/03/02 01:54:27;;;;;;;50.35;22.65;;;;;;;;;;2069278;28;20039;-63
2024/03/02 01:55:46;;;;;;;45.75;20.52;;;;;;;;;;2067265;28;20042;-62
2024/03/02 01:57:06;;;;;;;49.67;22.15;;;;;;;;;;2067815;28;20034;-63
2024/03/02 01:58:25;;;;;;;58.03;22.75;;;;;;;;;;2069264;28;20030;-62
2024/03/02 01:59:44;;;;;;;50.95;21.52;;;;;;;;;;2068429;28;20085;-62
2024/03/02 02:01:03;;;;;;;48.97;22.10;;;;;;;;;;2070609;28;20027;-62
2024/03/02 02:02:22;;;;;;;51.92;22.08;;;;;;;;;;2071109;28;20038;-63
2024/03/02 02:03:41;;;;;;;48.30;22.05;;;;;;;;;;2068797;28;20057;-63
2024/03/02 02:04:59;;;;;;;51.92;22.17;;;;;;;;;;2068010;28;20507;-63
2024/03/02 02:06:18;;;;;;;47.67;21.50;;;;;;;;;;2068017;28;20034;-64
2024/03/02 02:07:37;;;;;;;56.05;21.75;;;;;;;;;;2069938;28;20038;-63
2024/03/02 02:08:57;;;;;;;54.67;21.98;;;;;;;;;;2068609;28;20443;-63
2024/03/02 02:10:16;;;;;;;49.00;21.38;;;;;;;;;;2069033;28;20081;-63
2024/03/02 02:11:35;;;;;;;51.63;22.48;;;;;;;;;;2068469;28;20040;-63
2024/03/02 02:12:54;;;;;;;48.83;22.45;;;;;;;;;;2069462;28;20030;-62
2024/03/02 02:14:13;;;;;;;51.40;23.17;;;;;;;;;;2068864;28;20037;-62
2024/03/02 02:15:34;;;;;;;55.30;22.30;;;;;;;;;;2070719;28;20022;-63
2024/03/02 02:16:53;;;;;;;51.03;22.65;;;;;;;;;;2068460;28;20026;-62
2024/03/02 02:18:12;;;;;;;51.17;22.17;;;;;;;;;;2069741;28;20437;-61
2024/03/02 02:19:31;;;;;;;52.25;22.48;;;;;;;;;;2068713;28;20113;-63
2024/03/02 02:20:50;;;;;;;50.40;22.42;;;;;;;;;;2069292;28;20022;-62
2024/03/02 02:22:12;;;;;;;51.85;22.25;;;;;;;;;;2068317;28;20026;-62
2024/03/02 02:23:31;;;;;;;50.85;23.38;;;;;;;;;;2069466;28;20403;-63
2024/03/02 02:24:50;;;;;;;48.67;22.65;;;;;;;;;;2071107;28;20034;-64
2024/03/02 02:26:09;;;;;;;49.25;22.70;;;;;;;;;;2070522;28;20379;-63
2024/03/02 02:27:28;;;;;;;55.70;23.17;;;;;;;;;;2068447;28;20034;-63
2024/03/02 02:28:47;;;;;;;54.78;21.77;;;;;;;;;;2066479;28;20418;-62
2024/03/02 02:30:07;;;;;;;53.22;23.05;;;;;;;;;;2069044;28;20475;-62
2024/03/02 02:31:27;;;;;;;55.10;23.67;;;;;;;;;;2069534;28;20030;-63
2024/03/02 02:32:46;;;;;;;48.15;22.15;;;;;;;;;;2069001;28;20042;-63
2024/03/02 02:34:05;;;;;;;55.80;23.17;;;;;;;;;;2069556;28;20030;-63
2024/03/02 02:35:24;;;;;;;49.17;22.35;;;;;;;;;;2067116;28;20038;-61
2024/03/02 02:36:43;;;;;;;51.78;23.15;;;;;;;;;;2070908;28;20105;-62
2024/03/02 02:38:02;;;;;;;53.92;22.90;;;;;;;;;;2070849;28;20026;-62
2024/03/02 02:39:24;;;;;;;53.35;22.80;;;;;;;;;;2069069;28;20058;-63
2024/03/02 02:40:44;;;;;;;57.03;23.67;;;;;;;;;;2068068;28;20030;-62
2024/03/02 02:42:03;;;;;;;50.03;22.42;;;;;;;;;;2067787;28;20862;-63
2024/03/02 02:43:22;;;;;;;54.92;22.98;;;;;;;;;;2070254;28;20422;-63
2024/03/02 02:44:40;;;;;;;53.17;22.83;;;;;;;;;;2070216;28;20075;-62
2024/03/02 02:45:59;;;;;;;59.22;23.00;;;;;;;;;;2068613;28;20524;-62
2024/03/02 02:47:18;;;;;;;51.60;22.33;;;;;;;;;;2070603;28;20483;-62
2024/03/02 02:48:37;;;;;;;46.47;21.85;;;;;;;;;;2069282;28;20022;-62
2024/03/02 02:49:56;;;;;;;51.13;22.10;;;;;;;;;;2070561;28;20034;-63
2024/03/02 02:51:16;;;;;;;62.88;23.48;;;;;;;;;;2067643;28;20027;-63
2024/03/02 02:52:36;;;;;;;57.88;23.98;;;;;;;;;;2067215;28;20057;-65
2024/03/02 02:53:55;;;;;;;47.20;22.20;;;;;;;;;;2068682;28;20121;-63
2024/03/02 02:55:15;;;;;;;50.15;22.63;;;;;;;;;;2068865;28;20065;-63
2024/03/02 02:56:34;;;;;;;49.72;23.23;;;;;;;;;;2067911;28;20026;-63
2024/03/02 02:57:53;;;;;;;53.92;24.42;;;;;;;;;;2067495;28;20526;-64
2024/03/02 02:59:12;;;;;;;48.95;22.20;;;;;;;;;;2069948;28;20037;-63
2024/03/02 03:00:31;;;;;;;55.80;23.50;;;;;;;;;;2069370;28;20018;-62
2024/03/02 03:01:51;;;;;;;58.50;24.23;;;;;;;;;;2068015;28;20082;-63
2024/03/02 03:03:10;;;;;;;51.33;23.42;;;;;;;;;;2067661;28;20105;-63
2024/03/02 03:04:29;;;;;;;54.80;22.13;;;;;;;;;;2070721;28;21093;-63
2024/03/02 03:05:49;;;;;;;50.83;23.17;;;;;;;;;;2068603;28;20042;-63
2024/03/02 03:07:08;;;;;;;55.63;23.27;;;;;;;;;;2067900;28;20030;-63
2024/03/02 03:08:27;;;;;;;49.00;23.67;;;;;;;;;;2068295;28;20440;-63
2024/03/02 03:09:46;;;;;;;56.05;25.00;;;;;;;;;;2067843;28;20046;-63
2024/03/02 03:11:04;;;;;;;54.78;24.77;;;;;;;;;;2068225;28;20029;-63
2024/03/02 03:12:23;;;;;;;56.22;25.70;;;;;;;;;;2068482;28;20083;-63
2024/03/02 03:13:42;;;;;;;54.47;24.38;;;;;;;;;;2069529;28;20034;-63
2024/03/02 03:15:02;;;;;;;56.03;25.33;;;;;;;;;;2068682;28;20030;-62
2024/03/02 03:16:21;;;;;;;58.70;26.02;;;;;;;;;;2069320;28;20403;-62
2024/03/02 03:17:40;;;;;;;62.78;23.95;;;;;;;;;;2069109;28;20080;-62
2024/03/02 03:18:59;;;;;;;64.30;24.55;;;;;;;;;;2068177;28;20058;-62
2024/03/02 03:20:21;;;;;;;54.53;25.05;;;;;;;;;;2067521;28;20039;-63
2024/03/02 03:21:40;;;;;;;64.30;26.80;;;;;;;;;;2065198;28;20034;-62
2024/03/02 03:22:59;;;;;;;64.13;25.38;;;;;;;;;;2066475;28;20058;-63
2024/03/02 03:24:18;;;;;;;57.00;25.80;;;;;;;;;;2068750;28;20038;-63
2024/03/02 03:25:37;;;;;;;61.13;24.80;;;;;;;;;;2068382;28;20037;-63
2024/03/02 03:26:56;;;;;;;66.53;24.52;;;;;;;;;;2067917;28;20034;-63
2024/03/02 03:28:15;;;;;;;55.67;25.63;;;;;;;;;;2072173;28;20016;-62
2024/03/02 03:29:33;;;;;;;48.17;24.08;;;;;;;;;;2069042;28;20034;-62
2024/03/02 03:30:52;;;;;;;55.95;25.10;;;;;;;;;;2068476;28;20038;-63
2024/03/02 03:32:12;;;;;;;65.00;25.23;;;;;;;;;;2069502;28;20499;-63
2024/03/02 03:33:31;;;;;;;58.00;25.75;;;;;;;;;;2067197;28;20038;-62
2024/03/02 03:34:50;;;;;;;55.45;25.58;;;;;;;;;;2067790;28;20133;-63
2024/03/02 03:36:09;;;;;;;59.70;24.38;;;;;;;;;;2070031;28;20030;-62
2024/03/02 03:37:32;;;;;;;56.58;24.70;;;;;;;;;;2067494;28;20503;-62
2024/03/02 03:38:51;;;;;;;;;;;;;;;;;;2069030;28;20441;-63
2024/03/02 03:40:11;;;;;;;48.25;23.65;;;;;;;;;;2067839;28;20370;-62
2024/03/02 03:41:30;;;;;;;69.15;26.55;;;;;;;;;;2070211;28;20030;-63
2024/03/02 03:42:50;;;;;;;57.85;25.63;;;;;;;;;;2070112;28;20491;-62
2024/03/02 03:44:09;;;;;;;52.17;24.35;;;;;;;;;;2071490;28;20076;-63
2024/03/02 03:45:28;;;;;;;61.30;25.38;;;;;;;;;;2070481;28;20034;-62
2024/03/02 03:46:47;;;;;;;57.35;24.45;;;;;;;;;;2071528;28;20026;-62
2024/03/02 03:48:06;;;;;;;57.78;25.20;;;;;;;;;;2068557;28;20511;-62
2024/03/02 03:49:25;;;;;;;67.07;26.42;;;;;;;;;;2070256;28;20034;-62
2024/03/02 03:50:44;;;;;;;63.15;24.83;;;;;;;;;;2069529;28;20026;-62
2024/03/02 03:52:04;;;;;;;55.22;24.08;;;;;;;;;;2070142;28;20498;-62
2024/03/02 03:53:24;;;;;;;53.10;24.50;;;;;;;;;;2068084;28;20085;-62
2024/03/02 03:54:44;;;;;;;63.38;25.60;;;;;;;;;;2066794;28;20415;-62
2024/03/02 03:56:03;;;;;;;70.88;25.75;;;;;;;;;;2069873;28;20026;-62
2024/03/02 03:57:22;;;;;;;55.15;25.90;;;;;;;;;;2071481;28;20030;-62
2024/03/02 03:58:41;;;;;;;56.75;25.08;;;;;;;;;;2070085;28;20034;-62
2024/03/02 04:00:00;;;;;;;54.47;24.98;;;;;;;;;;2068768;28;20022;-65
2024/03/02 04:01:19;;;;;;;58.05;25.45;;;;;;;;;;2070169;28;20026;-62
2024/03/02 04:02:38;;;;;;;56.78;25.55;;;;;;;;;;2075504;28;20445;-64
2024/03/02 04:03:57;;;;;;;59.53;25.27;;;;;;;;;;2073163;28;20029;-62
2024/03/02 04:05:16;;;;;;;62.47;25.77;;;;;;;;;;2069212;28;20113;-62
2024/03/02 04:06:35;;;;;;;62.10;26.33;;;;;;;;;;2069733;28;20109;-62
2024/03/02 04:07:54;;;;;;;59.78;25.48;;;;;;;;;;2069548;28;20113;-62
2024/03/02 04:09:13;;;;;;;60.67;26.80;;;;;;;;;;2069901;28;20038;-62
2024/03/02 04:10:34;;;;;;;54.13;24.33;;;;;;;;;;2071037;28;20034;-62
2024/03/02 04:11:54;;;;;;;57.80;25.27;;;;;;;;;;2067246;28;20109;-62
2024/03/02 04:13:13;;;;;;;58.90;25.52;;;;;;;;;;2068622;28;20053;-62
2024/03/02 04:14:32;;;;;;;53.58;25.17;;;;;;;;;;2068919;28;20037;-62
2024/03/02 04:15:51;;;;;;;59.17;25.30;;;;;;;;;;2068492;28;20042;-63
2024/03/02 04:17:10;;;;;;;62.92;26.27;;;;;;;;;;2068635;28;20030;-62
2024/03/02 04:18:29;;;;;;;53.60;24.55;;;;;;;;;;2070340;28;20038;-62
2024/03/02 04:19:48;;;;;;;63.75;26.75;;;;;;;;;;2071509;28;20046;-62
2024/03/02 04:21:07;;;;;;;54.80;26.23;;;;;;;;;;2069045;28;20387;-62
2024/03/02 04:22:26;;;;;;;57.75;23.67;;;;;;;;;;2068003;28;20026;-62
2024/03/02 04:23:45;;;;;;;63.47;25.27;;;;;;;;;;2069511;28;20030;-62
2024/03/02 04:25:07;;;;;;;53.92;24.40;;;;;;;;;;2072973;28;20030;-62
2024/03/02 04:26:26;;;;;;;64.28;26.10;;;;;;;;;;2069848;28;20026;-62
2024/03/02 04:27:45;;;;;;;59.05;26.13;;;;;;;;;;2068948;28;20030;-62
2024/03/02 04:29:05;;;;;;;55.08;24.80;;;;;;;;;;2068798;28;20146;-62
2024/03/02 04:30:25;;;;;;;56.67;24.45;;;;;;;;;;2069072;28;20035;-62
2024/03/02 04:31:44;;;;;;;54.92;23.60;;;;;;;;;;2070588;28;20038;-62
2024/03/02 04:33:03;;;;;;;57.15;24.75;;;;;;;;;;2069452;28;20034;-63
2024/03/02 04:34:22;;;;;;;61.55;25.15;;;;;;;;;;2069798;28;20026;-62
2024/03/02 04:35:41;;;;;;;60.65;24.13;;;;;;;;;;2070842;28;20031;-61
2024/03/02 04:37:00;;;;;;;65.07;25.63;;;;;;;;;;2069746;28;20042;-62
2024/03/02 04:38:19;;;;;;;60.40;24.38;;;;;;;;;;2068278;28;20030;-62
2024/03/02 04:39:38;;;;;;;52.17;24.33;;;;;;;;;;2071337;28;20030;-62
2024/03/02 04:40:57;;;;;;;59.38;24.90;;;;;;;;;;2068556;28;20018;-63
2024/03/02 04:42:16;;;;;;;64.35;25.58;;;;;;;;;;2068481;28;20487;-62
2024/03/02 04:43:35;;;;;;;59.28;24.58;;;;;;;;;;2068570;28;20483;-62
2024/03/02 04:44:54;;;;;;;55.22;24.75;;;;;;;;;;2068132;28;20105;-62
2024/03/02 04:46:13;;;;;;;53.90;24.05;;;;;;;;;;2071200;28;20030;-62
2024/03/02 04:47:32;;;;;;;60.05;23.70;;;;;;;;;;2068785;28;20026;-62
2024/03/02 04:48:55;;;;;;;63.05;25.20;;;;;;;;;;2070996;28;20027;-62
2024/03/02 04:50:14;;;;;;;;;;;;;;;;;;2069163;28;20050;-62
2024/03/02 04:51:33;;;;;;;54.95;24.35;;;;;;;;;;2069553;28;19906;-62
2024/03/02 04:52:52;;;;;;;53.42;24.98;;;;;;;;;;2068637;28;20030;-62
2024/03/02 04:54:11;;;;;;;57.65;25.17;;;;;;;;;;2070121;28;20049;-63
2024/03/02 04:56:58;;;;;;;53.85;24.13;;;;;;;;;;2069320;28;20062;-62
2024/03/02 04:58:17;;;;;;;57.17;25.10;;;;;;;;;;2068977;28;20416;-62
2024/03/02 04:59:36;;;;;;;61.03;25.92;;;;;;;;;;2068095;28;20034;-62
2024/03/02 05:00:56;;;;;;;58.67;26.75;;;;;;;;;;2069090;28;20495;-62
2024/03/02 05:02:15;;;;;;;73.65;26.33;;;;;;;;;;2068403;28;20022;-63
2024/03/02 05:03:34;;;;;;;66.43;26.13;;;;;;;;;;2069991;28;20030;-63
2024/03/02 05:04:53;;;;;;;55.70;24.15;;;;;;;;;;2068704;28;20026;-63
2024/03/02 05:06:12;;;;;;;60.75;24.35;;;;;;;;;;2069737;28;20019;-64
2024/03/02 05:07:31;;;;;;;65.45;25.85;;;;;;;;;;2068131;28;20483;-61
2024/03/02 05:08:50;;;;;;;59.20;24.95;;;;;;;;;;2069307;28;20034;-64
2024/03/02 05:10:11;;;;;;;62.30;26.08;;;;;;;;;;2070496;28;20045;-63
2024/03/02 05:12:59;;;;;;;55.75;25.30;;;;;;;;;;2068609;28;20022;-63
2024/03/02 05:14:18;;;;;;;63.58;25.55;;;;;;;;;;2068757;28;20030;-63
2024/03/02 05:15:37;;;;;;;63.83;25.17;;;;;;;;;;2067960;28;20030;-63
2024/03/02 05:16:56;;;;;;;63.38;25.27;;;;;;;;;;2070520;28;20112;-63
2024/03/02 05:18:15;;;;;;;59.47;25.52;;;;;;;;;;2070421;28;20026;-63
2024/03/02 05:19:35;;;;;;;63.90;24.83;;;;;;;;;;2069978;28;20034;-63
2024/03/02 05:20:53;;;;;;;58.15;25.08;;;;;;;;;;2067430;28;20621;-63
2024/03/02 05:22:12;;;;;;;63.30;25.75;;;;;;;;;;2067369;28;20511;-63
2024/03/02 05:23:31;;;;;;;53.58;24.20;;;;;;;;;;2069500;28;20031;-63
2024/03/02 05:24:50;;;;;;;58.30;24.77;;;;;;;;;;2070724;28;20038;-62
2024/03/02 05:26:12;;;;;;;59.05;25.27;;;;;;;;;;2069411;28;20022;-63
2024/03/02 05:27:32;;;;;;;71.30;26.38;;;;;;;;;;2068991;28;20489;-63
2024/03/02 05:28:51;;;;;;;62.67;26.02;;;;;;;;;;2068073;28;20121;-63
2024/03/02 05:30:10;;;;;;;71.25;26.92;;;;;;;;;;2068324;28;20018;-63
2024/03/02 05:31:29;;;;;;;55.17;25.90;;;;;;;;;;2069605;28;20025;-63
2024/03/02 05:32:48;;;;;;;63.25;24.73;;;;;;;;;;2068731;28;20101;-63
2024/03/02 05:34:08;;;;;;;68.43;25.05;;;;;;;;;;2069175;28;20038;-63
2024/03/02 05:35:27;;;;;;;63.88;25.98;;;;;;;;;;2068832;28;20060;-63
2024/03/02 05:36:48;;;;;;;66.50;25.98;;;;;;;;;;2069324;28;20490;-63
2024/03/02 05:38:08;;;;;;;71.93;26.33;;;;;;;;;;2069573;28;20038;-63
2024/03/02 05:39:27;;;;;;;69.30;25.75;;;;;;;;;;2068184;28;20030;-63
2024/03/02 05:40:46;;;;;;;64.88;26.23;;;;;;;;;;2068727;28;20073;-63
2024/03/02 05:42:05;;;;;;;56.60;25.60;;;;;;;;;;2070020;28;20033;-63
2024/03/02 05:43:24;;;;;;;63.95;24.73;;;;;;;;;;2067926;28;20027;-63
2024/03/02 05:44:43;;;;;;;71.63;26.20;;;;;;;;;;2069634;28;20102;-63
2024/03/02 05:46:02;;;;;;;62.55;26.00;;;;;;;;;;2069839;28;20479;-63
2024/03/02 05:47:21;;;;;;;68.85;27.30;;;;;;;;;;2069643;28;20491;-65
2024/03/02 05:48:40;;;;;;;71.68;26.95;;;;;;;;;;2066846;28;20030;-63
2024/03/02 05:49:59;;;;;;;76.20;27.45;;;;;;;;;;2069286;28;20042;-63
2024/03/02 05:51:18;;;;;;;64.75;26.35;;;;;;;;;;2068655;28;20441;-63
2024/03/02 05:52:37;;;;;;;69.05;27.08;;;;;;;;;;2067907;28;20036;-63
2024/03/02 05:53:56;;;;;;;70.85;26.27;;;;;;;;;;2070219;28;20042;-63
2024/03/02 05:55:15;;;;;;;70.68;26.77;;;;;;;;;;2068047;28;20517;-63
2024/03/02 05:56:34;;;;;;;69.05;26.25;;;;;;;;;;2067086;28;20033;-63
2024/03/02 05:59:24;;;;;;;63.47;25.95;;;;;;;;;;2070740;28;20117;-63
2024/03/02 06:00:43;;;;;;;72.70;27.77;;;;;;;;;;2070274;28;20034;-63
2024/03/02 06:02:03;;;;;;;76.32;27.42;;;;;;;;;;2067882;28;20512;-63
2024/03/02 06:03:21;;;;;;;62.75;25.85;;;;;;;;;;2068932;28;20034;-62
2024/03/02 06:04:40;;;;;;;69.53;27.88;;;;;;;;;;2068750;28;20030;-63
2024/03/02 06:05:59;;;;;;;66.90;27.40;;;;;;;;;;2070255;28;20034;-63
2024/03/02 06:07:18;;;;;;;61.35;26.92;;;;;;;;;;2069564;28;20030;-62
2024/03/02 06:08:38;;;;;;;68.88;27.58;;;;;;;;;;2068891;28;20030;-63
2024/03/02 06:09:56;;;;;;;68.65;27.02;;;;;;;;;;2067592;28;20034;-63
2024/03/02 06:11:15;;;;;;;71.75;27.10;;;;;;;;;;2070001;28;20037;-63
2024/03/02 06:12:34;;;;;;;66.55;26.73;;;;;;;;;;2068389;28;20113;-63
2024/03/02 06:13:53;;;;;;;69.72;25.70;;;;;;;;;;2074169;28;20041;-63
2024/03/02 06:15:12;;;;;;;74.72;26.60;;;;;;;;;;2070709;28;20475;-63
2024/03/02 06:16:32;;;;;;;70.20;27.25;;;;;;;;;;2069460;28;20490;-65
2024/03/02 06:17:50;;;;;;;68.35;27.65;;;;;;;;;;2067596;28;20030;-63
2024/03/02 06:19:09;;;;;;;69.57;26.55;;;;;;;;;;2068376;28;20033;-63
2024/03/02 06:20:31;;;;;;;68.53;26.45;;;;;;;;;;2069254;28;20029;-63
2024/03/02 06:21:49;;;;;;;68.78;28.50;;;;;;;;;;2069073;28;20034;-63
2024/03/02 06:23:09;;;;;;;68.85;27.85;;;;;;;;;;2068649;28;20022;-63
2024/03/02 06:24:28;;;;;;;66.57;26.67;;;;;;;;;;2069927;28;20078;-63
2024/03/02 06:25:47;;;;;;;77.03;28.52;;;;;;;;;;2067530;28;20068;-63
2024/03/02 06:27:06;;;;;;;63.35;27.52;;;;;;;;;;2068119;28;20030;-63
2024/03/02 06:28:25;;;;;;;76.00;28.83;;;;;;;;;;2069897;28;20034;-63
2024/03/02 06:29:44;;;;;;;77.85;28.08;;;;;;;;;;2067369;28;20037;-63
2024/03/02 06:31:03;;;;;;;81.95;29.58;;;;;;;;;;2067988;28;20031;-67
2024/03/02 06:32:23;;;;;;;69.55;27.63;;;;;;;;;;2070134;28;20042;-63
2024/03/02 06:33:42;;;;;;;68.60;26.80;;;;;;;;;;2068585;28;20068;-63
2024/03/02 06:35:01;;;;;;;83.55;27.60;;;;;;;;;;2068834;28;20034;-63
2024/03/02 06:36:20;;;;;;;73.93;29.13;;;;;;;;;;2069505;28;20038;-63
2024/03/02 06:37:42;;;;;;;71.45;27.25;;;;;;;;;;2069518;28;20038;-63
2024/03/02 06:39:01;;;;;;;78.88;29.08;;;;;;;;;;2069735;28;20030;-63
2024/03/02 06:40:20;;;;;;;76.30;29.20;;;;;;;;;;2069135;28;20026;-63
2024/03/02 06:41:39;;;;;;;71.88;28.08;;;;;;;;;;2068550;28;20022;-63
2024/03/02 06:42:58;;;;;;;83.00;29.95;;;;;;;;;;2069779;28;20026;-63
2024/03/02 06:44:17;;;;;;;76.00;27.80;;;;;;;;;;2069866;28;20029;-63
2024/03/02 06:45:36;;;;;;;71.70;27.95;;;;;;;;;;2069175;28;20026;-63
2024/03/02 06:46:55;;;;;;;80.18;30.27;;;;;;;;;;2067417;28;20113;-63
2024/03/02 06:48:18;;;;;;;72.90;27.90;;;;;;;;;;2069497;28;20057;-63
2024/03/02 06:49:37;;;;;;;73.97;27.83;;;;;;;;;;2068314;28;20038;-63
2024/03/02 06:50:57;;;;;;;76.43;28.20;;;;;;;;;;2070157;28;20471;-63
2024/03/02 06:52:16;;;;;;;80.97;28.65;;;;;;;;;;2069205;28;20026;-63
2024/03/02 06:53:35;;;;;;;77.03;28.23;;;;;;;;;;2067709;28;20042;-63
2024/03/02 06:54:54;;;;;;;71.47;26.75;;;;;;;;;;2067878;28;20450;-63
2024/03/02 06:56:13;;;;;;;71.60;27.27;;;;;;;;;;2067747;28;20034;-64
2024/03/02 06:57:32;;;;;;;69.88;27.90;;;;;;;;;;2070468;28;20435;-63
2024/03/02 06:58:52;;;;;;;75.25;28.33;;;;;;;;;;2069590;28;20038;-63
2024/03/02 07:00:11;;;;;;;71.97;28.02;;;;;;;;;;2069244;28;20108;-63
2024/03/02 07:01:30;;;;;;;71.65;28.45;;;;;;;;;;2067069;28;20500;-65
2024/03/02 07:02:49;;;;;;;80.93;28.73;;;;;;;;;;2068281;28;20421;-63
2024/03/02 07:04:08;;;;;;;64.40;26.50;;;;;;;;;;2068151;28;20023;-63
2024/03/02 07:05:27;;;;;;;70.88;28.05;;;;;;;;;;2069840;28;20034;-63
2024/03/02 07:06:46;;;;;;;78.93;27.50;;;;;;;;;;2068582;28;20104;-63
2024/03/02 07:08:05;;;;;;;60.25;27.15;;;;;;;;;;2068761;28;20097;-63
2024/03/02 07:09:25;;;;;;;64.20;27.75;;;;;;;;;;2069002;28;20038;-63
2024/03/02 07:10:44;;;;;;;67.13;27.15;;;;;;;;;;2068904;28;20119;-63
2024/03/02 07:12:04;;;;;;;71.32;26.83;;;;;;;;;;2068421;28;20037;-62
2024/03/02 07:13:23;;;;;;;75.47;28.25;;;;;;;;;;2068985;28;20029;-63
2024/03/02 07:16:32;;;;;;;68.28;25.63;;;;;;;;;;2069366;28;20491;-63
2024/03/02 07:17:52;;;;;;;69.45;26.52;;;;;;;;;;2067783;28;20491;-63
2024/03/02 07:19:10;;;;;;;65.25;26.48;;;;;;;;;;2068578;28;20030;-62
2024/03/02 07:20:29;;;;;;;67.03;27.58;;;;;;;;;;2068058;28;20022;-63
2024/03/02 07:21:49;;;;;;;67.03;25.58;;;;;;;;;;2069268;28;20034;-63
2024/03/02 07:23:09;;;;;;;69.88;26.45;;;;;;;;;;2069233;28;20026;-63
2024/03/02 07:24:28;;;;;;;59.72;24.55;;;;;;;;;;2068597;28;20062;-63
2024/03/02 07:25:47;;;;;;;61.80;26.00;;;;;;;;;;2069178;28;20027;-64
2024/03/02 07:27:05;;;;;;;66.97;26.88;;;;;;;;;;2068713;28;20030;-63
2024/03/02 07:28:25;;;;;;;64.43;26.67;;;;;;;;;;2070394;28;20449;-63
2024/03/02 07:29:44;;;;;;;59.88;25.35;;;;;;;;;;2066778;28;20518;-63
2024/03/02 07:31:04;;;;;;;62.50;26.75;;;;;;;;;;2066270;28;20043;-63
2024/03/02 07:32:23;;;;;;;70.88;26.85;;;;;;;;;;2062639;28;20034;-63
2024/03/02 07:33:43;;;;;;;65.20;25.60;;;;;;;;;;2067280;28;20038;-63
2024/03/02 07:35:03;;;;;;;57.58;25.83;;;;;;;;;;2066736;28;20414;-63
2024/03/02 07:36:22;;;;;;;66.15;26.33;;;;;;;;;;2068827;28;20022;-63
2024/03/02 07:37:42;;;;;;;67.50;26.33;;;;;;;;;;2067959;28;20444;-63
2024/03/02 07:39:00;;;;;;;67.63;26.67;;;;;;;;;;2068467;28;20134;-63
2024/03/02 07:40:19;;;;;;;64.25;25.70;;;;;;;;;;2068469;28;20033;-63
2024/03/02 07:41:38;;;;;;;63.97;25.58;;;;;;;;;;2068389;28;20922;-63
2024/03/02 07:42:57;;;;;;;68.78;26.38;;;;;;;;;;2068744;28;20054;-63
2024/03/02 07:44:18;;;;;;;64.45;25.60;;;;;;;;;;2070620;28;20022;-63
2024/03/02 07:45:37;;;;;;;61.35;26.02;;;;;;;;;;2068395;28;20030;-64
2024/03/02 07:46:56;;;;;;;60.92;24.73;;;;;;;;;;2067009;28;20030;-63
2024/03/02 07:48:15;;;;;;;61.50;25.98;;;;;;;;;;2068867;28;20030;-63
2024/03/02 07:49:35;;;;;;;62.67;24.80;;;;;;;;;;2067816;28;20039;-63